createdAt,value
2017-05-28T00:00:12.395Z,1017.09
2017-05-28T00:01:21.356Z,1017.08
2017-05-28T00:02:30.321Z,1017.09
2017-05-28T00:03:39.593Z,1017.05
2017-05-28T00:04:48.563Z,1017.07
2017-05-28T00:05:57.546Z,1017.09
2017-05-28T00:07:06.506Z,1017.1
2017-05-28T00:08:15.467Z,1017.04
2017-05-28T00:09:24.744Z,1017.04
2017-05-28T00:10:33.711Z,1017.05
2017-05-28T00:11:42.674Z,1017.08
2017-05-28T00:12:51.633Z,1017.08
2017-05-28T00:14:00.599Z,1017.06
2017-05-28T00:15:09.869Z,1017.05
2017-05-28T00:16:18.827Z,1017.04
2017-05-28T00:17:28.121Z,1017.03
2017-05-28T00:18:37.084Z,1017.07
2017-05-28T00:19:46.052Z,1017.01
2017-05-28T00:20:55.315Z,1016.97
2017-05-28T00:22:04.276Z,1016.93
2017-05-28T00:23:13.571Z,1016.95
2017-05-28T00:24:22.540Z,1016.92
2017-05-28T00:25:31.501Z,1016.91
2017-05-28T00:26:40.761Z,1016.87
2017-05-28T00:27:49.726Z,1016.88
2017-05-28T00:28:58.698Z,1016.85
2017-05-28T00:30:07.655Z,1016.86
2017-05-28T00:31:16.623Z,1016.87
2017-05-28T00:32:26.178Z,1016.88
2017-05-28T00:33:35.230Z,1016.88
2017-05-28T00:34:44.198Z,1016.86
2017-05-28T00:35:53.164Z,1016.86
2017-05-28T00:37:02.128Z,1016.88
2017-05-28T00:38:11.433Z,1016.86
2017-05-28T00:39:20.395Z,1016.85
2017-05-28T00:40:29.358Z,1016.85
2017-05-28T00:41:38.321Z,1016.78
2017-05-28T00:42:47.285Z,1016.76
2017-05-28T00:43:56.883Z,1016.71
2017-05-28T00:45:05.852Z,1016.66
2017-05-28T00:46:14.813Z,1016.7
2017-05-28T00:47:23.845Z,1016.66
2017-05-28T00:48:32.810Z,1016.67
2017-05-28T00:49:42.078Z,1016.67
2017-05-28T00:50:51.044Z,1016.68
2017-05-28T00:52:00.012Z,1016.68
2017-05-28T00:53:08.976Z,1016.67
2017-05-28T00:54:17.945Z,1016.67
2017-05-28T00:55:27.169Z,1016.69
2017-05-28T00:56:36.221Z,1016.67
2017-05-28T00:57:45.184Z,1016.68
2017-05-28T00:58:54.148Z,1016.68
2017-05-28T01:00:03.115Z,1016.65
2017-05-28T01:01:12.324Z,1016.65
2017-05-28T01:02:21.291Z,1016.68
2017-05-28T01:03:30.254Z,1016.65
2017-05-28T01:04:39.214Z,1016.62
2017-05-28T01:05:48.178Z,1016.61
2017-05-28T01:06:57.400Z,1016.59
2017-05-28T01:08:06.371Z,1016.59
2017-05-28T01:09:15.335Z,1016.54
2017-05-28T01:10:24.307Z,1016.55
2017-05-28T01:11:33.273Z,1016.56
2017-05-28T01:12:42.486Z,1016.58
2017-05-28T01:13:51.446Z,1016.57
2017-05-28T01:15:00.409Z,1016.59
2017-05-28T01:16:09.463Z,1016.61
2017-05-28T01:17:18.429Z,1016.63
2017-05-28T01:18:27.645Z,1016.6
2017-05-28T01:19:36.612Z,1016.61
2017-05-28T01:20:45.572Z,1016.62
2017-05-28T01:21:54.536Z,1016.61
2017-05-28T01:23:03.500Z,1016.6
2017-05-28T01:24:12.772Z,1016.59
2017-05-28T01:25:21.737Z,1016.55
2017-05-28T01:26:30.707Z,1016.55
2017-05-28T01:27:39.676Z,1016.54
2017-05-28T01:28:48.641Z,1016.52
2017-05-28T01:29:57.905Z,1016.54
2017-05-28T01:31:06.951Z,1016.56
2017-05-28T01:32:15.921Z,1016.56
2017-05-28T01:33:24.881Z,1016.54
2017-05-28T01:34:34.170Z,1016.51
2017-05-28T01:35:43.436Z,1016.5
2017-05-28T01:36:52.398Z,1016.52
2017-05-28T01:38:01.363Z,1016.48
2017-05-28T01:39:10.326Z,1016.47
2017-05-28T01:40:19.288Z,1016.44
2017-05-28T01:41:28.492Z,1016.43
2017-05-28T01:42:37.454Z,1016.44
2017-05-28T01:43:46.431Z,1016.44
2017-05-28T01:44:55.406Z,1016.41
2017-05-28T01:46:04.367Z,1016.42
2017-05-28T01:47:13.576Z,1016.45
2017-05-28T01:48:22.542Z,1016.4
2017-05-28T01:49:31.498Z,1016.43
2017-05-28T01:50:40.459Z,1016.43
2017-05-28T01:51:49.420Z,1016.41
2017-05-28T01:52:58.636Z,1016.34
2017-05-28T01:54:07.602Z,1016.26
2017-05-28T01:55:16.584Z,1016.28
2017-05-28T01:56:25.866Z,1016.27
2017-05-28T01:57:34.829Z,1016.28
2017-05-28T01:58:44.089Z,1016.22
2017-05-28T01:59:53.056Z,1016.23
2017-05-28T02:01:02.026Z,1016.25
2017-05-28T02:02:10.985Z,1016.24
2017-05-28T02:03:19.951Z,1016.3
2017-05-28T02:04:29.170Z,1016.28
2017-05-28T02:05:38.136Z,1016.3
2017-05-28T02:06:47.096Z,1016.27
2017-05-28T02:07:56.056Z,1016.31
2017-05-28T02:09:05.020Z,1016.32
2017-05-28T02:10:14.236Z,1016.31
2017-05-28T02:11:23.196Z,1016.27
2017-05-28T02:12:32.153Z,1016.27
2017-05-28T02:13:41.117Z,1016.27
2017-05-28T02:14:50.081Z,1016.26
2017-05-28T02:15:59.295Z,1016.27
2017-05-28T02:17:08.257Z,1016.24
2017-05-28T02:18:17.311Z,1016.22
2017-05-28T02:19:26.277Z,1016.24
2017-05-28T02:20:35.245Z,1016.2
2017-05-28T02:21:44.457Z,1016.2
2017-05-28T02:22:53.512Z,1016.2
2017-05-28T02:24:02.472Z,1016.2
2017-05-28T02:25:11.431Z,1016.18
2017-05-28T02:26:20.390Z,1016.2
2017-05-28T02:27:29.601Z,1016.23
2017-05-28T02:28:38.561Z,1016.23
2017-05-28T02:29:47.520Z,1016.23
2017-05-28T02:30:56.478Z,1016.2
2017-05-28T02:32:05.442Z,1016.2
2017-05-28T02:33:14.704Z,1016.2
2017-05-28T02:34:23.755Z,1016.21
2017-05-28T02:35:32.718Z,1016.22
2017-05-28T02:36:41.681Z,1016.23
2017-05-28T02:37:50.641Z,1016.26
2017-05-28T02:38:59.856Z,1016.22
2017-05-28T02:40:08.813Z,1016.22
2017-05-28T02:41:17.773Z,1016.24
2017-05-28T02:42:26.744Z,1016.17
2017-05-28T02:43:35.705Z,1016.21
2017-05-28T02:44:44.920Z,1016.2
2017-05-28T02:45:53.893Z,1016.15
2017-05-28T02:47:02.853Z,1016.14
2017-05-28T02:48:11.816Z,1016.16
2017-05-28T02:49:20.846Z,1016.13
2017-05-28T02:50:30.395Z,1016.11
2017-05-28T02:51:39.355Z,1016.12
2017-05-28T02:52:48.328Z,1016.08
2017-05-28T02:53:57.286Z,1016.06
2017-05-28T02:55:06.250Z,1016.04
2017-05-28T02:56:15.469Z,1016.07
2017-05-28T02:57:24.429Z,1016.08
2017-05-28T02:58:33.395Z,1016.07
2017-05-28T02:59:42.358Z,1016.04
2017-05-28T03:00:51.321Z,1016.06
2017-05-28T03:02:00.531Z,1016.05
2017-05-28T03:03:09.579Z,1015.99
2017-05-28T03:04:18.545Z,1015.99
2017-05-28T03:05:27.512Z,1015.96
2017-05-28T03:06:36.469Z,1015.94
2017-05-28T03:07:45.684Z,1016
2017-05-28T03:08:54.743Z,1015.99
2017-05-28T03:10:04.026Z,1016.06
2017-05-28T03:11:12.991Z,1016.01
2017-05-28T03:12:21.953Z,1016.04
2017-05-28T03:13:31.160Z,1016.01
2017-05-28T03:14:40.122Z,1016.06
2017-05-28T03:15:49.174Z,1016
2017-05-28T03:16:58.148Z,1016.02
2017-05-28T03:18:07.113Z,1015.99
2017-05-28T03:19:16.323Z,1016
2017-05-28T03:20:25.288Z,1015.99
2017-05-28T03:21:34.252Z,1016
2017-05-28T03:22:43.213Z,1015.97
2017-05-28T03:23:52.180Z,1016.04
2017-05-28T03:25:01.438Z,1016.04
2017-05-28T03:26:10.404Z,1016.06
2017-05-28T03:27:19.365Z,1016.05
2017-05-28T03:28:28.330Z,1016.03
2017-05-28T03:29:37.620Z,1016.02
2017-05-28T03:30:46.831Z,1016.04
2017-05-28T03:31:55.792Z,1016.04
2017-05-28T03:33:04.755Z,1016.01
2017-05-28T03:34:13.721Z,1016.01
2017-05-28T03:35:22.682Z,1016.03
2017-05-28T03:36:31.889Z,1016.04
2017-05-28T03:37:40.855Z,1016.07
2017-05-28T03:38:49.820Z,1016.04
2017-05-28T03:39:58.784Z,1016.06
2017-05-28T03:41:07.752Z,1016.04
2017-05-28T03:42:17.290Z,1016.06
2017-05-28T03:43:26.339Z,1016.06
2017-05-28T03:44:35.300Z,1016.04
2017-05-28T03:45:44.355Z,1016.01
2017-05-28T03:46:53.314Z,1016.01
2017-05-28T03:48:02.524Z,1015.98
2017-05-28T03:49:11.495Z,1015.96
2017-05-28T03:50:20.549Z,1015.93
2017-05-28T03:51:29.511Z,1015.89
2017-05-28T03:52:38.466Z,1015.94
2017-05-28T03:53:47.676Z,1015.93
2017-05-28T03:54:56.641Z,1015.88
2017-05-28T03:56:05.605Z,1015.86
2017-05-28T03:57:14.563Z,1015.87
2017-05-28T03:58:23.525Z,1015.91
2017-05-28T03:59:32.746Z,1015.98
2017-05-28T04:00:41.801Z,1015.94
2017-05-28T04:01:50.850Z,1015.98
2017-05-28T04:02:59.812Z,1015.92
2017-05-28T04:04:08.775Z,1015.9
2017-05-28T04:05:18.077Z,1015.85
2017-05-28T04:06:27.039Z,1015.83
2017-05-28T04:07:36.001Z,1015.82
2017-05-28T04:08:44.971Z,1015.84
2017-05-28T04:09:53.935Z,1015.78
2017-05-28T04:11:03.230Z,1015.76
2017-05-28T04:12:12.190Z,1015.75
2017-05-28T04:13:21.153Z,1015.78
2017-05-28T04:14:30.116Z,1015.81
2017-05-28T04:15:39.086Z,1015.79
2017-05-28T04:16:48.382Z,1015.83
2017-05-28T04:17:57.341Z,1015.88
2017-05-28T04:19:06.448Z,1015.84
2017-05-28T04:20:15.408Z,1015.78
2017-05-28T04:21:24.370Z,1015.84
2017-05-28T04:22:33.584Z,1015.82
2017-05-28T04:23:42.541Z,1015.85
2017-05-28T04:24:51.505Z,1015.86
2017-05-28T04:26:00.467Z,1015.85
2017-05-28T04:27:09.434Z,1015.85
2017-05-28T04:28:18.731Z,1015.84
2017-05-28T04:29:27.698Z,1015.88
2017-05-28T04:30:36.664Z,1015.86
2017-05-28T04:31:45.714Z,1015.87
2017-05-28T04:32:54.675Z,1015.86
2017-05-28T04:34:04.214Z,1015.83
2017-05-28T04:35:13.173Z,1015.82
2017-05-28T04:36:22.136Z,1015.83
2017-05-28T04:37:31.101Z,1015.84
2017-05-28T04:38:40.080Z,1015.81
2017-05-28T04:39:49.295Z,1015.83
2017-05-28T04:40:58.257Z,1015.8
2017-05-28T04:42:07.306Z,1015.84
2017-05-28T04:43:16.314Z,1015.82
2017-05-28T04:44:25.279Z,1015.82
2017-05-28T04:45:34.502Z,1015.79
2017-05-28T04:46:43.463Z,1015.74
2017-05-28T04:47:52.423Z,1015.76
2017-05-28T04:49:01.380Z,1015.82
2017-05-28T04:50:10.343Z,1015.83
2017-05-28T04:51:19.556Z,1015.81
2017-05-28T04:52:28.515Z,1015.79
2017-05-28T04:53:37.478Z,1015.78
2017-05-28T04:54:46.438Z,1015.77
2017-05-28T04:55:55.406Z,1015.74
2017-05-28T04:57:04.621Z,1015.72
2017-05-28T04:58:13.671Z,1015.77
2017-05-28T04:59:22.639Z,1015.69
2017-05-28T05:00:31.600Z,1015.72
2017-05-28T05:01:40.559Z,1015.75
2017-05-28T05:02:49.770Z,1015.69
2017-05-28T05:03:58.831Z,1015.69
2017-05-28T05:05:07.796Z,1015.71
2017-05-28T05:06:16.775Z,1015.73
2017-05-28T05:07:25.738Z,1015.73
2017-05-28T05:08:35.037Z,1015.7
2017-05-28T05:09:43.999Z,1015.71
2017-05-28T05:10:52.964Z,1015.67
2017-05-28T05:12:01.923Z,1015.68
2017-05-28T05:13:10.885Z,1015.65
2017-05-28T05:14:20.104Z,1015.63
2017-05-28T05:15:29.069Z,1015.67
2017-05-28T05:16:38.040Z,1015.72
2017-05-28T05:17:47.320Z,1015.7
2017-05-28T05:18:56.283Z,1015.66
2017-05-28T05:20:05.498Z,1015.68
2017-05-28T05:21:14.461Z,1015.72
2017-05-28T05:22:23.750Z,1015.72
2017-05-28T05:23:32.717Z,1015.74
2017-05-28T05:24:41.749Z,1015.71
2017-05-28T05:25:50.968Z,1015.76
2017-05-28T05:26:59.928Z,1015.79
2017-05-28T05:28:08.885Z,1015.77
2017-05-28T05:29:17.849Z,1015.72
2017-05-28T05:30:26.816Z,1015.74
2017-05-28T05:31:36.029Z,1015.78
2017-05-28T05:32:44.993Z,1015.71
2017-05-28T05:33:53.952Z,1015.69
2017-05-28T05:35:02.913Z,1015.74
2017-05-28T05:36:11.877Z,1015.68
2017-05-28T05:37:21.175Z,1015.71
2017-05-28T05:38:30.140Z,1015.76
2017-05-28T05:39:39.196Z,1015.75
2017-05-28T05:40:48.164Z,1015.73
2017-05-28T05:41:57.126Z,1015.74
2017-05-28T05:43:06.342Z,1015.73
2017-05-28T05:44:15.306Z,1015.78
2017-05-28T05:45:24.265Z,1015.77
2017-05-28T05:46:33.226Z,1015.76
2017-05-28T05:47:42.186Z,1015.81
2017-05-28T05:48:51.443Z,1015.8
2017-05-28T05:50:00.403Z,1015.84
2017-05-28T05:51:09.365Z,1015.84
2017-05-28T05:52:18.330Z,1015.88
2017-05-28T05:53:27.288Z,1015.89
2017-05-28T05:54:36.503Z,1015.94
2017-05-28T05:55:45.465Z,1015.94
2017-05-28T05:56:54.426Z,1015.98
2017-05-28T05:58:03.388Z,1016.03
2017-05-28T05:59:12.356Z,1015.98
2017-05-28T06:00:21.657Z,1016.03
2017-05-28T06:01:30.618Z,1016.06
2017-05-28T06:02:39.579Z,1016.03
2017-05-28T06:03:48.544Z,1016.01
2017-05-28T06:04:57.511Z,1015.91
2017-05-28T06:06:06.723Z,1015.9
2017-05-28T06:07:15.681Z,1015.92
2017-05-28T06:08:24.647Z,1016.14
2017-05-28T06:09:33.618Z,1016.59
2017-05-28T06:10:42.583Z,1016.31
2017-05-28T06:11:51.798Z,1016.04
2017-05-28T06:13:00.755Z,1015.97
2017-05-28T06:14:09.723Z,1015.88
2017-05-28T06:15:18.684Z,1015.93
2017-05-28T06:16:27.666Z,1015.92
2017-05-28T06:17:36.877Z,1015.95
2017-05-28T06:18:45.852Z,1015.95
2017-05-28T06:19:54.842Z,1015.94
2017-05-28T06:21:03.898Z,1015.93
2017-05-28T06:22:12.864Z,1015.92
2017-05-28T06:23:22.077Z,1015.88
2017-05-28T06:24:31.038Z,1015.87
2017-05-28T06:25:40.002Z,1015.85
2017-05-28T06:26:49.058Z,1015.89
2017-05-28T06:27:58.021Z,1015.88
2017-05-28T06:29:07.648Z,1015.92
2017-05-28T06:30:16.621Z,1015.94
2017-05-28T06:31:25.588Z,1015.96
2017-05-28T06:32:34.551Z,1015.98
2017-05-28T06:33:43.858Z,1015.95
2017-05-28T06:34:53.069Z,1015.94
2017-05-28T06:36:02.036Z,1015.95
2017-05-28T06:37:10.998Z,1015.9
2017-05-28T06:38:19.960Z,1015.89
2017-05-28T06:39:28.934Z,1015.9
2017-05-28T06:40:38.143Z,1015.91
2017-05-28T06:41:47.102Z,1015.85
2017-05-28T06:42:56.064Z,1015.86
2017-05-28T06:44:05.028Z,1015.87
2017-05-28T06:45:13.997Z,1015.87
2017-05-28T06:46:23.295Z,1015.87
2017-05-28T06:47:32.259Z,1015.87
2017-05-28T06:48:41.228Z,1015.76
2017-05-28T06:49:50.189Z,1015.82
2017-05-28T06:50:59.157Z,1015.78
2017-05-28T06:52:08.371Z,1015.79
2017-05-28T06:53:17.661Z,1015.81
2017-05-28T06:54:26.629Z,1015.8
2017-05-28T06:55:35.596Z,1015.81
2017-05-28T06:56:44.569Z,1015.84
2017-05-28T06:57:53.779Z,1015.8
2017-05-28T06:59:02.746Z,1015.82
2017-05-28T07:00:11.713Z,1015.86
2017-05-28T07:01:20.674Z,1015.84
2017-05-28T07:02:29.965Z,1015.87
2017-05-28T07:03:39.506Z,1015.88
2017-05-28T07:04:48.478Z,1015.83
2017-05-28T07:05:57.450Z,1015.89
2017-05-28T07:07:06.498Z,1015.85
2017-05-28T07:08:15.462Z,1015.81
2017-05-28T07:09:24.680Z,1015.8
2017-05-28T07:10:33.642Z,1015.8
2017-05-28T07:11:42.608Z,1015.75
2017-05-28T07:12:51.575Z,1015.78
2017-05-28T07:14:00.544Z,1015.72
2017-05-28T07:15:09.754Z,1015.69
2017-05-28T07:16:18.717Z,1015.75
2017-05-28T07:17:27.685Z,1015.74
2017-05-28T07:18:36.739Z,1015.71
2017-05-28T07:19:45.752Z,1015.65
2017-05-28T07:20:54.978Z,1015.61
2017-05-28T07:22:03.941Z,1015.64
2017-05-28T07:23:12.915Z,1015.66
2017-05-28T07:24:21.880Z,1015.58
2017-05-28T07:25:30.847Z,1015.58
2017-05-28T07:26:40.149Z,1015.6
2017-05-28T07:27:49.521Z,1015.66
2017-05-28T07:28:58.489Z,1015.61
2017-05-28T07:30:07.782Z,1015.6
2017-05-28T07:31:16.836Z,1015.61
2017-05-28T07:32:26.052Z,1015.57
2017-05-28T07:33:35.017Z,1015.58
2017-05-28T07:34:43.978Z,1015.57
2017-05-28T07:35:52.943Z,1015.57
2017-05-28T07:37:01.995Z,1015.61
2017-05-28T07:38:11.206Z,1015.55
2017-05-28T07:39:20.177Z,1015.57
2017-05-28T07:40:29.142Z,1015.52
2017-05-28T07:41:38.114Z,1015.49
2017-05-28T07:42:47.080Z,1015.5
2017-05-28T07:43:56.437Z,1015.46
2017-05-28T07:45:05.398Z,1015.42
2017-05-28T07:46:14.361Z,1015.44
2017-05-28T07:47:23.658Z,1015.39
2017-05-28T07:48:32.618Z,1015.41
2017-05-28T07:49:41.923Z,1015.4
2017-05-28T07:50:50.974Z,1015.42
2017-05-28T07:51:59.938Z,1015.36
2017-05-28T07:53:08.899Z,1015.41
2017-05-28T07:54:17.871Z,1015.4
2017-05-28T07:55:27.093Z,1015.41
2017-05-28T07:56:36.055Z,1015.38
2017-05-28T07:57:45.019Z,1015.36
2017-05-28T07:58:53.985Z,1015.36
2017-05-28T08:00:02.949Z,1015.34
2017-05-28T08:01:12.489Z,1015.32
2017-05-28T08:02:21.453Z,1015.33
2017-05-28T08:03:30.413Z,1015.3
2017-05-28T08:04:39.388Z,1015.26
2017-05-28T08:05:48.353Z,1015.27
2017-05-28T08:06:57.570Z,1015.29
2017-05-28T08:08:06.534Z,1015.25
2017-05-28T08:09:15.498Z,1015.25
2017-05-28T08:10:24.460Z,1015.21
2017-05-28T08:11:33.446Z,1015.3
2017-05-28T08:12:42.665Z,1015.24
2017-05-28T08:13:51.719Z,1015.26
2017-05-28T08:15:00.687Z,1015.3
2017-05-28T08:16:09.652Z,1015.3
2017-05-28T08:17:18.616Z,1015.23
2017-05-28T08:18:27.830Z,1015.21
2017-05-28T08:19:36.791Z,1015.22
2017-05-28T08:20:45.758Z,1015.25
2017-05-28T08:21:54.719Z,1015.19
2017-05-28T08:23:03.683Z,1015.2
2017-05-28T08:24:12.898Z,1015.12
2017-05-28T08:25:21.863Z,1015.22
2017-05-28T08:26:30.828Z,1015.18
2017-05-28T08:27:39.789Z,1015.1
2017-05-28T08:28:48.760Z,1015.1
2017-05-28T08:29:57.979Z,1015.1
2017-05-28T08:31:07.032Z,1015.1
2017-05-28T08:32:16.165Z,1015.11
2017-05-28T08:33:25.141Z,1015.1
2017-05-28T08:34:34.107Z,1015.09
2017-05-28T08:35:43.463Z,1015.15
2017-05-28T08:36:52.426Z,1015.14
2017-05-28T08:38:01.393Z,1015.12
2017-05-28T08:39:10.355Z,1015.12
2017-05-28T08:40:19.317Z,1015.11
2017-05-28T08:41:28.532Z,1015.08
2017-05-28T08:42:37.588Z,1015.06
2017-05-28T08:43:46.556Z,1015.04
2017-05-28T08:44:55.526Z,1014.99
2017-05-28T08:46:04.493Z,1015
2017-05-28T08:47:13.711Z,1015.01
2017-05-28T08:48:22.675Z,1014.96
2017-05-28T08:49:31.646Z,1014.96
2017-05-28T08:50:40.611Z,1015.01
2017-05-28T08:51:49.582Z,1015.01
2017-05-28T08:52:59.119Z,1014.96
2017-05-28T08:54:08.145Z,1015.01
2017-05-28T08:55:17.205Z,1015.01
2017-05-28T08:56:26.169Z,1014.95
2017-05-28T08:57:35.132Z,1014.95
2017-05-28T08:58:44.369Z,1014.94
2017-05-28T08:59:53.334Z,1014.92
2017-05-28T09:01:02.302Z,1014.91
2017-05-28T09:02:11.269Z,1014.86
2017-05-28T09:03:20.240Z,1014.82
2017-05-28T09:04:29.457Z,1014.8
2017-05-28T09:05:38.425Z,1014.79
2017-05-28T09:06:47.389Z,1014.84
2017-05-28T09:07:56.357Z,1014.87
2017-05-28T09:09:05.323Z,1014.88
2017-05-28T09:10:14.865Z,1014.83
2017-05-28T09:11:23.917Z,1014.84
2017-05-28T09:12:32.885Z,1014.8
2017-05-28T09:13:41.851Z,1014.79
2017-05-28T09:14:50.820Z,1014.76
2017-05-28T09:16:00.429Z,1014.76
2017-05-28T09:17:09.401Z,1014.76
2017-05-28T09:18:18.412Z,1014.75
2017-05-28T09:19:27.371Z,1014.76
2017-05-28T09:20:36.337Z,1014.74
2017-05-28T09:21:45.559Z,1014.74
2017-05-28T09:22:54.526Z,1014.79
2017-05-28T09:24:03.492Z,1014.71
2017-05-28T09:25:12.550Z,1014.77
2017-05-28T09:26:21.514Z,1014.76
2017-05-28T09:27:30.730Z,1014.76
2017-05-28T09:28:40.092Z,1014.72
2017-05-28T09:29:49.057Z,1014.71
2017-05-28T09:30:58.024Z,1014.66
2017-05-28T09:32:06.993Z,1014.63
2017-05-28T09:33:16.529Z,1014.63
2017-05-28T09:34:25.497Z,1014.63
2017-05-28T09:35:34.463Z,1014.59
2017-05-28T09:36:43.432Z,1014.55
2017-05-28T09:37:52.398Z,1014.57
2017-05-28T09:39:01.615Z,1014.57
2017-05-28T09:40:10.586Z,1014.6
2017-05-28T09:41:19.551Z,1014.53
2017-05-28T09:42:28.521Z,1014.57
2017-05-28T09:43:37.489Z,1014.58
2017-05-28T09:44:46.764Z,1014.6
2017-05-28T09:45:55.735Z,1014.58
2017-05-28T09:47:04.701Z,1014.61
2017-05-28T09:48:13.667Z,1014.56
2017-05-28T09:49:22.636Z,1014.54
2017-05-28T09:50:32.177Z,1014.58
2017-05-28T09:51:41.141Z,1014.59
2017-05-28T09:52:50.110Z,1014.49
2017-05-28T09:53:59.082Z,1014.55
2017-05-28T09:55:08.050Z,1014.46
2017-05-28T09:56:17.268Z,1014.48
2017-05-28T09:57:26.567Z,1014.51
2017-05-28T09:58:35.536Z,1014.52
2017-05-28T09:59:44.505Z,1014.47
2017-05-28T10:00:53.641Z,1014.51
2017-05-28T10:02:02.875Z,1014.51
2017-05-28T10:03:11.836Z,1014.45
2017-05-28T10:04:20.868Z,1014.47
2017-05-28T10:05:29.843Z,1014.48
2017-05-28T10:06:38.809Z,1014.45
2017-05-28T10:07:48.031Z,1014.41
2017-05-28T10:08:57.001Z,1014.42
2017-05-28T10:10:05.962Z,1014.4
2017-05-28T10:11:14.942Z,1014.33
2017-05-28T10:12:23.908Z,1014.32
2017-05-28T10:13:33.129Z,1014.31
2017-05-28T10:14:42.097Z,1014.32
2017-05-28T10:15:51.083Z,1014.29
2017-05-28T10:17:00.046Z,1014.39
2017-05-28T10:18:09.019Z,1014.3
2017-05-28T10:19:18.245Z,1014.26
2017-05-28T10:20:27.217Z,1014.27
2017-05-28T10:21:36.186Z,1014.36
2017-05-28T10:22:45.159Z,1014.36
2017-05-28T10:23:54.128Z,1014.32
2017-05-28T10:25:03.353Z,1014.26
2017-05-28T10:26:12.324Z,1014.19
2017-05-28T10:27:21.289Z,1014.16
2017-05-28T10:28:30.257Z,1014.22
2017-05-28T10:29:39.219Z,1014.11
2017-05-28T10:30:48.434Z,1014.24
2017-05-28T10:31:57.396Z,1014.17
2017-05-28T10:33:06.366Z,1014.1
2017-05-28T10:34:15.338Z,1014.08
2017-05-28T10:35:24.301Z,1014.08
2017-05-28T10:36:33.527Z,1014.13
2017-05-28T10:37:42.578Z,1013.98
2017-05-28T10:38:51.547Z,1013.97
2017-05-28T10:40:00.520Z,1013.98
2017-05-28T10:41:09.508Z,1014
2017-05-28T10:42:19.050Z,1013.97
2017-05-28T10:43:28.020Z,1013.93
2017-05-28T10:44:36.988Z,1013.98
2017-05-28T10:45:45.963Z,1013.95
2017-05-28T10:46:54.925Z,1014.04
2017-05-28T10:48:04.147Z,1014.03
2017-05-28T10:49:13.116Z,1014.03
2017-05-28T10:50:22.089Z,1013.98
2017-05-28T10:51:31.052Z,1013.91
2017-05-28T10:52:40.071Z,1013.96
2017-05-28T10:53:49.284Z,1014.07
2017-05-28T10:54:58.256Z,1014
2017-05-28T10:56:07.227Z,1013.98
2017-05-28T10:57:16.291Z,1013.99
2017-05-28T10:58:25.255Z,1013.95
2017-05-28T10:59:34.568Z,1013.96
2017-05-28T11:00:43.540Z,1013.99
2017-05-28T11:01:52.505Z,1013.89
2017-05-28T11:03:01.477Z,1013.89
2017-05-28T11:04:10.446Z,1013.97
2017-05-28T11:05:20.039Z,1013.95
2017-05-28T11:06:29.008Z,1013.91
2017-05-28T11:07:38.056Z,1013.95
2017-05-28T11:08:47.031Z,1013.94
2017-05-28T11:09:56.324Z,1013.86
2017-05-28T11:11:05.632Z,1013.85
2017-05-28T11:12:14.599Z,1013.82
2017-05-28T11:13:23.565Z,1013.81
2017-05-28T11:14:32.595Z,1013.74
2017-05-28T11:15:41.561Z,1013.74
2017-05-28T11:16:50.777Z,1013.78
2017-05-28T11:17:59.741Z,1013.79
2017-05-28T11:19:08.705Z,1013.8
2017-05-28T11:20:17.676Z,1013.83
2017-05-28T11:21:26.673Z,1013.76
2017-05-28T11:22:35.887Z,1013.8
2017-05-28T11:23:44.852Z,1013.77
2017-05-28T11:24:54.158Z,1013.68
2017-05-28T11:26:03.126Z,1013.77
2017-05-28T11:27:12.102Z,1013.82
2017-05-28T11:28:21.316Z,1013.86
2017-05-28T11:29:30.281Z,1013.74
2017-05-28T11:30:39.258Z,1013.77
2017-05-28T11:31:48.310Z,1013.76
2017-05-28T11:32:57.277Z,1013.68
2017-05-28T11:34:06.497Z,1013.6
2017-05-28T11:35:15.468Z,1013.55
2017-05-28T11:36:24.439Z,1013.55
2017-05-28T11:37:33.413Z,1013.52
2017-05-28T11:38:42.710Z,1013.59
2017-05-28T11:39:52.260Z,1013.6
2017-05-28T11:41:01.321Z,1013.57
2017-05-28T11:42:10.302Z,1013.56
2017-05-28T11:43:19.363Z,1013.57
2017-05-28T11:44:28.331Z,1013.61
2017-05-28T11:45:37.730Z,1013.5
2017-05-28T11:46:46.694Z,1013.55
2017-05-28T11:47:55.679Z,1013.52
2017-05-28T11:49:04.648Z,1013.52
2017-05-28T11:50:13.621Z,1013.52
2017-05-28T11:51:22.838Z,1013.54
2017-05-28T11:52:31.802Z,1013.47
2017-05-28T11:53:40.775Z,1013.56
2017-05-28T11:54:49.750Z,1013.56
2017-05-28T11:55:58.805Z,1013.55
2017-05-28T11:57:08.024Z,1013.53
2017-05-28T11:58:16.997Z,1013.51
2017-05-28T11:59:25.963Z,1013.44
2017-05-28T12:00:34.937Z,1013.42
2017-05-28T12:01:43.994Z,1013.44
2017-05-28T12:02:53.215Z,1013.44
2017-05-28T12:04:02.181Z,1013.41
2017-05-28T12:05:11.142Z,1013.37
2017-05-28T12:06:20.109Z,1013.28
2017-05-28T12:07:29.080Z,1013.36
2017-05-28T12:08:38.295Z,1013.38
2017-05-28T12:09:47.617Z,1013.44
2017-05-28T12:10:56.585Z,1013.41
2017-05-28T12:12:05.877Z,1013.37
2017-05-28T12:13:14.848Z,1013.3
2017-05-28T12:14:24.067Z,1013.34
2017-05-28T12:15:33.036Z,1013.31
2017-05-28T12:16:41.998Z,1013.3
2017-05-28T12:17:51.022Z,1013.31
2017-05-28T12:18:59.992Z,1013.33
2017-05-28T12:20:09.219Z,1013.26
2017-05-28T12:21:18.185Z,1013.27
2017-05-28T12:22:27.155Z,1013.26
2017-05-28T12:23:36.116Z,1013.21
2017-05-28T12:24:45.093Z,1013.22
2017-05-28T12:25:54.313Z,1013.19
2017-05-28T12:27:03.371Z,1013.19
2017-05-28T12:28:12.337Z,1013.16
2017-05-28T12:29:21.638Z,1013.2
2017-05-28T12:30:30.937Z,1013.2
2017-05-28T12:31:40.155Z,1013.14
2017-05-28T12:32:49.454Z,1013.1
2017-05-28T12:33:58.428Z,1013.1
2017-05-28T12:35:07.407Z,1013.08
2017-05-28T12:36:16.381Z,1013.06
2017-05-28T12:37:25.651Z,1013.08
2017-05-28T12:38:34.620Z,1013.08
2017-05-28T12:39:43.590Z,1013.04
2017-05-28T12:40:52.556Z,1012.99
2017-05-28T12:42:01.529Z,1012.97
2017-05-28T12:43:10.747Z,1012.94
2017-05-28T12:44:19.718Z,1012.97
2017-05-28T12:45:28.687Z,1012.94
2017-05-28T12:46:37.655Z,1012.98
2017-05-28T12:47:46.625Z,1012.94
2017-05-28T12:48:55.853Z,1012.98
2017-05-28T12:50:04.823Z,1012.92
2017-05-28T12:51:13.789Z,1012.96
2017-05-28T12:52:22.760Z,1012.9
2017-05-28T12:53:31.727Z,1012.89
2017-05-28T12:54:40.696Z,1012.9
2017-05-28T12:55:49.665Z,1012.78
2017-05-28T12:56:58.726Z,1012.78
2017-05-28T12:58:08.017Z,1012.87
2017-05-28T12:59:17.241Z,1012.81
2017-05-28T13:00:26.211Z,1012.88
2017-05-28T13:01:35.182Z,1012.86
2017-05-28T13:02:44.153Z,1012.85
2017-05-28T13:03:53.122Z,1012.74
2017-05-28T13:05:02.349Z,1012.72
2017-05-28T13:06:11.329Z,1012.73
2017-05-28T13:07:20.301Z,1012.68
2017-05-28T13:08:29.265Z,1012.72
2017-05-28T13:09:38.239Z,1012.68
2017-05-28T13:10:47.451Z,1012.8
2017-05-28T13:11:56.422Z,1012.82
2017-05-28T13:13:05.395Z,1012.79
2017-05-28T13:14:14.370Z,1012.73
2017-05-28T13:15:23.667Z,1012.67
2017-05-28T13:16:32.937Z,1012.68
2017-05-28T13:17:41.899Z,1012.66
2017-05-28T13:18:50.878Z,1012.63
2017-05-28T13:19:59.852Z,1012.57
2017-05-28T13:21:08.818Z,1012.56
2017-05-28T13:22:18.037Z,1012.55
2017-05-28T13:23:27.006Z,1012.57
2017-05-28T13:24:35.970Z,1012.55
2017-05-28T13:25:44.938Z,1012.55
2017-05-28T13:26:53.919Z,1012.57
2017-05-28T13:28:03.142Z,1012.55
2017-05-28T13:29:12.108Z,1012.57
2017-05-28T13:30:21.080Z,1012.55
2017-05-28T13:31:30.057Z,1012.56
2017-05-28T13:32:39.025Z,1012.49
2017-05-28T13:33:48.246Z,1012.48
2017-05-28T13:34:57.213Z,1012.45
2017-05-28T13:36:06.185Z,1012.5
2017-05-28T13:37:15.157Z,1012.48
2017-05-28T13:38:24.128Z,1012.48
2017-05-28T13:39:33.404Z,1012.54
2017-05-28T13:40:42.370Z,1012.57
2017-05-28T13:41:51.426Z,1012.52
2017-05-28T13:43:00.400Z,1012.51
2017-05-28T13:44:09.368Z,1012.54
2017-05-28T13:45:18.589Z,1012.45
2017-05-28T13:46:27.561Z,1012.38
2017-05-28T13:47:36.531Z,1012.34
2017-05-28T13:48:45.499Z,1012.29
2017-05-28T13:49:54.486Z,1012.24
2017-05-28T13:51:03.705Z,1012.24
2017-05-28T13:52:12.674Z,1012.27
2017-05-28T13:53:21.653Z,1012.19
2017-05-28T13:54:30.625Z,1012.14
2017-05-28T13:55:39.596Z,1012.15
2017-05-28T13:56:49.141Z,1012.16
2017-05-28T13:57:58.212Z,1012.2